sensor_id;sensor_type;location;lat;lon;timestamp;P1;P2;P0
73623;PMS5003;61921;53.226;-1.296;2023-02-15T00:00:30;118;107;
73623;PMS5003;61921;53.226;-1.296;2023-02-15T00:02:55;123;110;
73623;PMS5003;61921;53.226;-1.296;2023-02-15T00:05:20;113;105;
73623;PMS5003;61921;53.226;-1.296;2023-02-15T00:07:46;127;114;
73623;PMS5003;61921;53.226;-1.296;2023-02-15T00:10:12;122;108;
73623;PMS5003;61921;53.226;-1.296;2023-02-15T00:12:37;123;110;
73623;PMS5003;61921;53.226;-1.296;2023-02-15T00:15:03;114;106;
73623;PMS5003;61921;53.226;-1.296;2023-02-15T00:17:28;124;107;
73623;PMS5003;61921;53.226;-1.296;2023-02-15T00:19:54;115;105;
73623;PMS5003;61921;53.226;-1.296;2023-02-15T00:22:20;126;111;
73623;PMS5003;61921;53.226;-1.296;2023-02-15T00:24:46;108;100;
73623;PMS5003;61921;53.226;-1.296;2023-02-15T00:27:11;122;113;
73623;PMS5003;61921;53.226;-1.296;2023-02-15T00:29:37;113;98;
73623;PMS5003;61921;53.226;-1.296;2023-02-15T00:32:02;110;99;
73623;PMS5003;61921;53.226;-1.296;2023-02-15T00:34:27;119;109;
73623;PMS5003;61921;53.226;-1.296;2023-02-15T00:36:53;121;105;
73623;PMS5003;61921;53.226;-1.296;2023-02-15T00:39:18;108;103;
73623;PMS5003;61921;53.226;-1.296;2023-02-15T00:41:44;101;95;
73623;PMS5003;61921;53.226;-1.296;2023-02-15T00:44:09;102;94;
73623;PMS5003;61921;53.226;-1.296;2023-02-15T00:46:34;106;97;
73623;PMS5003;61921;53.226;-1.296;2023-02-15T00:49:00;111;98;
73623;PMS5003;61921;53.226;-1.296;2023-02-15T00:51:26;113;104;
73623;PMS5003;61921;53.226;-1.296;2023-02-15T00:53:51;111;104;
73623;PMS5003;61921;53.226;-1.296;2023-02-15T00:56:17;123;109;
73623;PMS5003;61921;53.226;-1.296;2023-02-15T00:58:42;118;109;
73623;PMS5003;61921;53.226;-1.296;2023-02-15T01:01:09;117;110;
73623;PMS5003;61921;53.226;-1.296;2023-02-15T01:03:33;106;97;
73623;PMS5003;61921;53.226;-1.296;2023-02-15T01:05:59;120;108;
73623;PMS5003;61921;53.226;-1.296;2023-02-15T01:08:24;125;106;
73623;PMS5003;61921;53.226;-1.296;2023-02-15T01:10:49;117;97;
73623;PMS5003;61921;53.226;-1.296;2023-02-15T01:13:15;118;106;
73623;PMS5003;61921;53.226;-1.296;2023-02-15T01:15:40;114;99;
73623;PMS5003;61921;53.226;-1.296;2023-02-15T01:18:05;108;99;
73623;PMS5003;61921;53.226;-1.296;2023-02-15T01:20:34;107;97;
73623;PMS5003;61921;53.226;-1.296;2023-02-15T01:22:56;106;103;
73623;PMS5003;61921;53.226;-1.296;2023-02-15T01:25:22;121;106;
73623;PMS5003;61921;53.226;-1.296;2023-02-15T01:27:47;114;105;
73623;PMS5003;61921;53.226;-1.296;2023-02-15T01:30:13;114;104;
73623;PMS5003;61921;53.226;-1.296;2023-02-15T01:32:38;126;113;
73623;PMS5003;61921;53.226;-1.296;2023-02-15T01:35:03;117;109;
73623;PMS5003;61921;53.226;-1.296;2023-02-15T01:37:29;117;105;
73623;PMS5003;61921;53.226;-1.296;2023-02-15T01:39:54;102;94;
73623;PMS5003;61921;53.226;-1.296;2023-02-15T01:42:20;118;108;
73623;PMS5003;61921;53.226;-1.296;2023-02-15T01:44:46;106;100;
73623;PMS5003;61921;53.226;-1.296;2023-02-15T01:47:11;115;103;
73623;PMS5003;61921;53.226;-1.296;2023-02-15T01:49:36;112;97;
73623;PMS5003;61921;53.226;-1.296;2023-02-15T01:52:02;120;108;
73623;PMS5003;61921;53.226;-1.296;2023-02-15T01:54:29;117;106;
73623;PMS5003;61921;53.226;-1.296;2023-02-15T01:56:52;123;109;
73623;PMS5003;61921;53.226;-1.296;2023-02-15T01:59:19;124;103;
73623;PMS5003;61921;53.226;-1.296;2023-02-15T02:01:44;111;107;
73623;PMS5003;61921;53.226;-1.296;2023-02-15T02:04:11;123;104;
73623;PMS5003;61921;53.226;-1.296;2023-02-15T02:06:35;111;104;
73623;PMS5003;61921;53.226;-1.296;2023-02-15T02:09:00;109;96;
73623;PMS5003;61921;53.226;-1.296;2023-02-15T02:11:26;106;96;
73623;PMS5003;61921;53.226;-1.296;2023-02-15T02:13:51;106;99;
73623;PMS5003;61921;53.226;-1.296;2023-02-15T02:16:17;107;100;
73623;PMS5003;61921;53.226;-1.296;2023-02-15T02:18:44;120;107;
73623;PMS5003;61921;53.226;-1.296;2023-02-15T02:23:37;112;99;
73623;PMS5003;61921;53.226;-1.296;2023-02-15T02:26:01;107;101;
73623;PMS5003;61921;53.226;-1.296;2023-02-15T02:28:30;119;104;
73623;PMS5003;61921;53.226;-1.296;2023-02-15T02:30:54;113;103;
73623;PMS5003;61921;53.226;-1.296;2023-02-15T02:35:42;120;108;
73623;PMS5003;61921;53.226;-1.296;2023-02-15T02:38:14;110;99;
73623;PMS5003;61921;53.226;-1.296;2023-02-15T02:40:34;114;101;
73623;PMS5003;61921;53.226;-1.296;2023-02-15T02:42:58;119;105;
73623;PMS5003;61921;53.226;-1.296;2023-02-15T02:45:23;124;109;
73623;PMS5003;61921;53.226;-1.296;2023-02-15T02:47:47;118;97;
73623;PMS5003;61921;53.226;-1.296;2023-02-15T02:50:13;122;105;
73623;PMS5003;61921;53.226;-1.296;2023-02-15T02:52:38;131;108;
73623;PMS5003;61921;53.226;-1.296;2023-02-15T02:55:03;110;98;
73623;PMS5003;61921;53.226;-1.296;2023-02-15T02:57:28;117;105;
73623;PMS5003;61921;53.226;-1.296;2023-02-15T02:59:53;107;97;
73623;PMS5003;61921;53.226;-1.296;2023-02-15T03:02:20;114;101;
73623;PMS5003;61921;53.226;-1.296;2023-02-15T03:04:45;116;104;
73623;PMS5003;61921;53.226;-1.296;2023-02-15T03:07:11;103;96;
73623;PMS5003;61921;53.226;-1.296;2023-02-15T03:09:36;118;106;
73623;PMS5003;61921;53.226;-1.296;2023-02-15T03:12:01;118;107;
73623;PMS5003;61921;53.226;-1.296;2023-02-15T03:14:26;116;105;
73623;PMS5003;61921;53.226;-1.296;2023-02-15T03:16:51;113;105;
73623;PMS5003;61921;53.226;-1.296;2023-02-15T03:19:17;124;110;
73623;PMS5003;61921;53.226;-1.296;2023-02-15T03:21:44;119;108;
73623;PMS5003;61921;53.226;-1.296;2023-02-15T03:24:08;132;119;
73623;PMS5003;61921;53.226;-1.296;2023-02-15T03:26:33;127;115;
73623;PMS5003;61921;53.226;-1.296;2023-02-15T03:28:59;110;102;
73623;PMS5003;61921;53.226;-1.296;2023-02-15T03:31:26;120;105;
73623;PMS5003;61921;53.226;-1.296;2023-02-15T03:33:52;119;103;
73623;PMS5003;61921;53.226;-1.296;2023-02-15T03:36:17;124;109;
73623;PMS5003;61921;53.226;-1.296;2023-02-15T03:38:42;122;110;
73623;PMS5003;61921;53.226;-1.296;2023-02-15T03:41:06;111;102;
73623;PMS5003;61921;53.226;-1.296;2023-02-15T03:43:33;116;107;
73623;PMS5003;61921;53.226;-1.296;2023-02-15T03:45:57;113;103;
73623;PMS5003;61921;53.226;-1.296;2023-02-15T03:48:24;123;108;
73623;PMS5003;61921;53.226;-1.296;2023-02-15T03:50:48;131;110;
73623;PMS5003;61921;53.226;-1.296;2023-02-15T03:53:14;110;102;
73623;PMS5003;61921;53.226;-1.296;2023-02-15T03:55:39;123;115;
73623;PMS5003;61921;53.226;-1.296;2023-02-15T03:58:04;121;111;
73623;PMS5003;61921;53.226;-1.296;2023-02-15T04:00:30;123;114;
73623;PMS5003;61921;53.226;-1.296;2023-02-15T04:03:06;119;107;
73623;PMS5003;61921;53.226;-1.296;2023-02-15T04:05:21;122;108;
73623;PMS5003;61921;53.226;-1.296;2023-02-15T04:07:46;123;112;
73623;PMS5003;61921;53.226;-1.296;2023-02-15T04:10:12;123;106;
73623;PMS5003;61921;53.226;-1.296;2023-02-15T04:12:37;118;106;
73623;PMS5003;61921;53.226;-1.296;2023-02-15T04:15:03;114;107;
73623;PMS5003;61921;53.226;-1.296;2023-02-15T04:17:28;121;110;
73623;PMS5003;61921;53.226;-1.296;2023-02-15T04:19:53;117;107;
73623;PMS5003;61921;53.226;-1.296;2023-02-15T04:22:19;111;105;
73623;PMS5003;61921;53.226;-1.296;2023-02-15T04:24:45;117;103;
73623;PMS5003;61921;53.226;-1.296;2023-02-15T04:27:10;130;116;
73623;PMS5003;61921;53.226;-1.296;2023-02-15T04:29:35;141;109;
73623;PMS5003;61921;53.226;-1.296;2023-02-15T04:32:01;131;115;
73623;PMS5003;61921;53.226;-1.296;2023-02-15T04:34:26;131;114;
73623;PMS5003;61921;53.226;-1.296;2023-02-15T04:36:52;127;110;
73623;PMS5003;61921;53.226;-1.296;2023-02-15T04:39:18;113;106;
73623;PMS5003;61921;53.226;-1.296;2023-02-15T04:41:43;115;107;
73623;PMS5003;61921;53.226;-1.296;2023-02-15T04:44:08;117;112;
73623;PMS5003;61921;53.226;-1.296;2023-02-15T04:46:33;112;106;
73623;PMS5003;61921;53.226;-1.296;2023-02-15T04:48:59;121;111;
73623;PMS5003;61921;53.226;-1.296;2023-02-15T04:51:25;118;108;
73623;PMS5003;61921;53.226;-1.296;2023-02-15T04:53:49;115;106;
73623;PMS5003;61921;53.226;-1.296;2023-02-15T04:56:15;120;109;
73623;PMS5003;61921;53.226;-1.296;2023-02-15T04:58:40;117;108;
73623;PMS5003;61921;53.226;-1.296;2023-02-15T05:01:06;118;109;
73623;PMS5003;61921;53.226;-1.296;2023-02-15T05:03:32;116;106;
73623;PMS5003;61921;53.226;-1.296;2023-02-15T05:05:57;118;106;
73623;PMS5003;61921;53.226;-1.296;2023-02-15T05:08:23;121;110;
73623;PMS5003;61921;53.226;-1.296;2023-02-15T05:10:48;117;107;
73623;PMS5003;61921;53.226;-1.296;2023-02-15T05:13:13;119;105;
73623;PMS5003;61921;53.226;-1.296;2023-02-15T05:15:38;120;108;
73623;PMS5003;61921;53.226;-1.296;2023-02-15T05:18:04;124;109;
73623;PMS5003;61921;53.226;-1.296;2023-02-15T05:20:30;123;115;
73623;PMS5003;61921;53.226;-1.296;2023-02-15T05:22:55;122;107;
73623;PMS5003;61921;53.226;-1.296;2023-02-15T05:25:21;117;110;
73623;PMS5003;61921;53.226;-1.296;2023-02-15T05:27:46;117;105;
73623;PMS5003;61921;53.226;-1.296;2023-02-15T05:30:12;124;99;
73623;PMS5003;61921;53.226;-1.296;2023-02-15T05:32:37;114;103;
73623;PMS5003;61921;53.226;-1.296;2023-02-15T05:35:03;114;104;
73623;PMS5003;61921;53.226;-1.296;2023-02-15T05:37:28;124;101;
73623;PMS5003;61921;53.226;-1.296;2023-02-15T05:39:53;112;97;
73623;PMS5003;61921;53.226;-1.296;2023-02-15T05:42:18;124;103;
73623;PMS5003;61921;53.226;-1.296;2023-02-15T05:44:44;116;106;
73623;PMS5003;61921;53.226;-1.296;2023-02-15T05:47:09;122;105;
73623;PMS5003;61921;53.226;-1.296;2023-02-15T05:49:35;112;95;
73623;PMS5003;61921;53.226;-1.296;2023-02-15T05:52:00;112;105;
73623;PMS5003;61921;53.226;-1.296;2023-02-15T05:54:26;118;105;
73623;PMS5003;61921;53.226;-1.296;2023-02-15T05:56:51;120;105;
73623;PMS5003;61921;53.226;-1.296;2023-02-15T05:59:17;108;97;
73623;PMS5003;61921;53.226;-1.296;2023-02-15T06:01:43;124;114;
73623;PMS5003;61921;53.226;-1.296;2023-02-15T06:04:08;118;102;
73623;PMS5003;61921;53.226;-1.296;2023-02-15T06:06:33;106;102;
73623;PMS5003;61921;53.226;-1.296;2023-02-15T06:08:58;121;107;
73623;PMS5003;61921;53.226;-1.296;2023-02-15T06:11:23;121;102;
73623;PMS5003;61921;53.226;-1.296;2023-02-15T06:13:49;107;99;
73623;PMS5003;61921;53.226;-1.296;2023-02-15T06:16:14;118;106;
73623;PMS5003;61921;53.226;-1.296;2023-02-15T06:18:40;121;108;
73623;PMS5003;61921;53.226;-1.296;2023-02-15T06:21:05;121;108;
73623;PMS5003;61921;53.226;-1.296;2023-02-15T06:23:30;114;100;
73623;PMS5003;61921;53.226;-1.296;2023-02-15T06:25:56;111;105;
73623;PMS5003;61921;53.226;-1.296;2023-02-15T06:28:21;111;101;
73623;PMS5003;61921;53.226;-1.296;2023-02-15T06:30:46;110;98;
73623;PMS5003;61921;53.226;-1.296;2023-02-15T06:33:12;120;107;
73623;PMS5003;61921;53.226;-1.296;2023-02-15T06:35:37;116;104;
73623;PMS5003;61921;53.226;-1.296;2023-02-15T06:38:02;121;108;
73623;PMS5003;61921;53.226;-1.296;2023-02-15T06:40:27;120;109;
73623;PMS5003;61921;53.226;-1.296;2023-02-15T06:42:53;121;103;
73623;PMS5003;61921;53.226;-1.296;2023-02-15T06:45:18;113;101;
73623;PMS5003;61921;53.226;-1.296;2023-02-15T06:47:44;105;101;
73623;PMS5003;61921;53.226;-1.296;2023-02-15T06:50:10;115;105;
73623;PMS5003;61921;53.226;-1.296;2023-02-15T06:52:35;116;104;
73623;PMS5003;61921;53.226;-1.296;2023-02-15T06:55:00;110;99;
73623;PMS5003;61921;53.226;-1.296;2023-02-15T06:57:25;117;104;
73623;PMS5003;61921;53.226;-1.296;2023-02-15T06:59:51;127;110;
73623;PMS5003;61921;53.226;-1.296;2023-02-15T07:02:16;123;114;
73623;PMS5003;61921;53.226;-1.296;2023-02-15T07:04:42;138;118;
73623;PMS5003;61921;53.226;-1.296;2023-02-15T07:07:08;117;108;
73623;PMS5003;61921;53.226;-1.296;2023-02-15T07:09:33;126;113;
73623;PMS5003;61921;53.226;-1.296;2023-02-15T07:11:58;126;111;
73623;PMS5003;61921;53.226;-1.296;2023-02-15T07:14:24;121;108;
73623;PMS5003;61921;53.226;-1.296;2023-02-15T07:16:49;130;113;
73623;PMS5003;61921;53.226;-1.296;2023-02-15T07:19:15;129;120;
73623;PMS5003;61921;53.226;-1.296;2023-02-15T07:21:41;129;116;
73623;PMS5003;61921;53.226;-1.296;2023-02-15T07:24:06;124;107;
73623;PMS5003;61921;53.226;-1.296;2023-02-15T07:26:31;131;116;
73623;PMS5003;61921;53.226;-1.296;2023-02-15T07:28:57;124;113;
73623;PMS5003;61921;53.226;-1.296;2023-02-15T07:31:23;131;115;
73623;PMS5003;61921;53.226;-1.296;2023-02-15T07:33:48;136;122;
73623;PMS5003;61921;53.226;-1.296;2023-02-15T07:36:14;133;120;
73623;PMS5003;61921;53.226;-1.296;2023-02-15T07:38:39;124;114;
73623;PMS5003;61921;53.226;-1.296;2023-02-15T07:41:05;127;113;
73623;PMS5003;61921;53.226;-1.296;2023-02-15T07:43:32;128;114;
73623;PMS5003;61921;53.226;-1.296;2023-02-15T07:45:58;117;107;
73623;PMS5003;61921;53.226;-1.296;2023-02-15T07:48:21;126;114;
73623;PMS5003;61921;53.226;-1.296;2023-02-15T07:50:47;124;112;
73623;PMS5003;61921;53.226;-1.296;2023-02-15T07:53:13;121;104;
73623;PMS5003;61921;53.226;-1.296;2023-02-15T07:55:38;131;107;
73623;PMS5003;61921;53.226;-1.296;2023-02-15T07:58:04;116;107;
73623;PMS5003;61921;53.226;-1.296;2023-02-15T08:00:29;128;112;
73623;PMS5003;61921;53.226;-1.296;2023-02-15T08:02:55;121;114;
73623;PMS5003;61921;53.226;-1.296;2023-02-15T08:05:21;115;109;
73623;PMS5003;61921;53.226;-1.296;2023-02-15T08:07:46;114;101;
73623;PMS5003;61921;53.226;-1.296;2023-02-15T08:10:12;122;112;
73623;PMS5003;61921;53.226;-1.296;2023-02-15T08:12:37;128;111;
73623;PMS5003;61921;53.226;-1.296;2023-02-15T08:15:02;129;116;
73623;PMS5003;61921;53.226;-1.296;2023-02-15T08:17:28;119;100;
73623;PMS5003;61921;53.226;-1.296;2023-02-15T08:19:53;124;114;
73623;PMS5003;61921;53.226;-1.296;2023-02-15T08:22:19;115;107;
73623;PMS5003;61921;53.226;-1.296;2023-02-15T08:24:44;140;128;
73623;PMS5003;61921;53.226;-1.296;2023-02-15T08:27:10;141;121;
73623;PMS5003;61921;53.226;-1.296;2023-02-15T08:29:36;123;110;
73623;PMS5003;61921;53.226;-1.296;2023-02-15T08:32:02;119;106;
73623;PMS5003;61921;53.226;-1.296;2023-02-15T08:34:27;136;128;
73623;PMS5003;61921;53.226;-1.296;2023-02-15T08:36:52;128;113;
73623;PMS5003;61921;53.226;-1.296;2023-02-15T08:39:18;127;117;
73623;PMS5003;61921;53.226;-1.296;2023-02-15T08:41:43;122;108;
73623;PMS5003;61921;53.226;-1.296;2023-02-15T08:44:09;122;111;
73623;PMS5003;61921;53.226;-1.296;2023-02-15T08:46:36;129;122;
73623;PMS5003;61921;53.226;-1.296;2023-02-15T08:49:00;131;111;
73623;PMS5003;61921;53.226;-1.296;2023-02-15T08:51:26;126;118;
73623;PMS5003;61921;53.226;-1.296;2023-02-15T08:53:50;125;112;
73623;PMS5003;61921;53.226;-1.296;2023-02-15T08:56:15;132;121;
73623;PMS5003;61921;53.226;-1.296;2023-02-15T08:58:41;148;129;
73623;PMS5003;61921;53.226;-1.296;2023-02-15T09:01:09;132;113;
73623;PMS5003;61921;53.226;-1.296;2023-02-15T09:03:31;135;122;
73623;PMS5003;61921;53.226;-1.296;2023-02-15T09:05:58;140;120;
73623;PMS5003;61921;53.226;-1.296;2023-02-15T09:08:23;158;134;
73623;PMS5003;61921;53.226;-1.296;2023-02-15T09:10:48;133;120;
73623;PMS5003;61921;53.226;-1.296;2023-02-15T09:13:13;132;124;
73623;PMS5003;61921;53.226;-1.296;2023-02-15T09:15:39;137;123;
73623;PMS5003;61921;53.226;-1.296;2023-02-15T09:18:04;125;114;
73623;PMS5003;61921;53.226;-1.296;2023-02-15T09:20:30;126;110;
73623;PMS5003;61921;53.226;-1.296;2023-02-15T09:22:55;122;111;
73623;PMS5003;61921;53.226;-1.296;2023-02-15T09:25:21;123;113;
73623;PMS5003;61921;53.226;-1.296;2023-02-15T09:27:47;140;123;
73623;PMS5003;61921;53.226;-1.296;2023-02-15T09:30:13;133;121;
73623;PMS5003;61921;53.226;-1.296;2023-02-15T09:32:38;140;120;
73623;PMS5003;61921;53.226;-1.296;2023-02-15T09:35:03;118;107;
73623;PMS5003;61921;53.226;-1.296;2023-02-15T09:37:29;130;119;
73623;PMS5003;61921;53.226;-1.296;2023-02-15T09:39:53;121;113;
73623;PMS5003;61921;53.226;-1.296;2023-02-15T09:42:24;121;112;
73623;PMS5003;61921;53.226;-1.296;2023-02-15T09:44:50;123;112;
73623;PMS5003;61921;53.226;-1.296;2023-02-15T09:47:14;123;115;
73623;PMS5003;61921;53.226;-1.296;2023-02-15T09:49:37;142;117;
73623;PMS5003;61921;53.226;-1.296;2023-02-15T09:52:06;127;116;
73623;PMS5003;61921;53.226;-1.296;2023-02-15T09:54:30;122;111;
73623;PMS5003;61921;53.226;-1.296;2023-02-15T09:56:52;134;113;
73623;PMS5003;61921;53.226;-1.296;2023-02-15T09:59:18;131;120;
73623;PMS5003;61921;53.226;-1.296;2023-02-15T10:01:43;122;113;
73623;PMS5003;61921;53.226;-1.296;2023-02-15T10:04:12;129;116;
73623;PMS5003;61921;53.226;-1.296;2023-02-15T10:06:34;119;110;
73623;PMS5003;61921;53.226;-1.296;2023-02-15T10:09:02;119;106;
73623;PMS5003;61921;53.226;-1.296;2023-02-15T10:11:25;120;110;
73623;PMS5003;61921;53.226;-1.296;2023-02-15T10:13:52;110;101;
73623;PMS5003;61921;53.226;-1.296;2023-02-15T10:16:16;121;106;
73623;PMS5003;61921;53.226;-1.296;2023-02-15T10:18:46;101;97;
73623;PMS5003;61921;53.226;-1.296;2023-02-15T10:21:07;113;103;
73623;PMS5003;61921;53.226;-1.296;2023-02-15T10:25:58;113;103;
73623;PMS5003;61921;53.226;-1.296;2023-02-15T10:28:23;105;99;
73623;PMS5003;61921;53.226;-1.296;2023-02-15T10:30:47;106;97;
73623;PMS5003;61921;53.226;-1.296;2023-02-15T10:33:14;116;101;
73623;PMS5003;61921;53.226;-1.296;2023-02-15T10:35:40;98;92;
73623;PMS5003;61921;53.226;-1.296;2023-02-15T10:38:06;103;95;
73623;PMS5003;61921;53.226;-1.296;2023-02-15T10:40:32;104;93;
73623;PMS5003;61921;53.226;-1.296;2023-02-15T10:42:58;116;102;
73623;PMS5003;61921;53.226;-1.296;2023-02-15T10:45:22;100;94;
73623;PMS5003;61921;53.226;-1.296;2023-02-15T10:47:50;116;103;
73623;PMS5003;61921;53.226;-1.296;2023-02-15T10:50:15;111;103;
73623;PMS5003;61921;53.226;-1.296;2023-02-15T10:52:38;105;98;
73623;PMS5003;61921;53.226;-1.296;2023-02-15T10:55:02;116;98;
73623;PMS5003;61921;53.226;-1.296;2023-02-15T10:57:28;102;96;
73623;PMS5003;61921;53.226;-1.296;2023-02-15T11:00:00;105;93;
73623;PMS5003;61921;53.226;-1.296;2023-02-15T11:02:19;106;102;
73623;PMS5003;61921;53.226;-1.296;2023-02-15T11:04:45;101;92;
73623;PMS5003;61921;53.226;-1.296;2023-02-15T11:07:10;100;93;
73623;PMS5003;61921;53.226;-1.296;2023-02-15T11:09:36;104;98;
73623;PMS5003;61921;53.226;-1.296;2023-02-15T11:12:00;97;89;
73623;PMS5003;61921;53.226;-1.296;2023-02-15T11:14:27;108;96;
73623;PMS5003;61921;53.226;-1.296;2023-02-15T11:16:51;111;96;
73623;PMS5003;61921;53.226;-1.296;2023-02-15T11:19:17;98;87;
73623;PMS5003;61921;53.226;-1.296;2023-02-15T11:21:42;97;92;
73623;PMS5003;61921;53.226;-1.296;2023-02-15T11:24:09;90;83;
73623;PMS5003;61921;53.226;-1.296;2023-02-15T11:26:33;107;97;
73623;PMS5003;61921;53.226;-1.296;2023-02-15T11:28:59;110;96;
73623;PMS5003;61921;53.226;-1.296;2023-02-15T11:31:25;103;99;
73623;PMS5003;61921;53.226;-1.296;2023-02-15T11:33:49;96;90;
73623;PMS5003;61921;53.226;-1.296;2023-02-15T11:36:15;102;89;
73623;PMS5003;61921;53.226;-1.296;2023-02-15T11:38:39;101;90;
73623;PMS5003;61921;53.226;-1.296;2023-02-15T11:41:05;112;98;
73623;PMS5003;61921;53.226;-1.296;2023-02-15T11:43:32;100;93;
73623;PMS5003;61921;53.226;-1.296;2023-02-15T11:45:56;96;86;
73623;PMS5003;61921;53.226;-1.296;2023-02-15T11:48:22;94;86;
73623;PMS5003;61921;53.226;-1.296;2023-02-15T11:50:47;92;85;
73623;PMS5003;61921;53.226;-1.296;2023-02-15T11:53:13;88;83;
73623;PMS5003;61921;53.226;-1.296;2023-02-15T11:55:38;95;90;
73623;PMS5003;61921;53.226;-1.296;2023-02-15T11:58:04;102;92;
73623;PMS5003;61921;53.226;-1.296;2023-02-15T12:00:32;90;87;
73623;PMS5003;61921;53.226;-1.296;2023-02-15T12:02:54;91;89;
73623;PMS5003;61921;53.226;-1.296;2023-02-15T12:05:21;93;89;
73623;PMS5003;61921;53.226;-1.296;2023-02-15T12:07:46;102;93;
73623;PMS5003;61921;53.226;-1.296;2023-02-15T12:10:15;97;87;
73623;PMS5003;61921;53.226;-1.296;2023-02-15T12:12:37;90;83;
73623;PMS5003;61921;53.226;-1.296;2023-02-15T12:15:03;102;93;
73623;PMS5003;61921;53.226;-1.296;2023-02-15T12:17:28;93;83;
73623;PMS5003;61921;53.226;-1.296;2023-02-15T12:19:55;101;92;
73623;PMS5003;61921;53.226;-1.296;2023-02-15T12:22:20;95;87;
73623;PMS5003;61921;53.226;-1.296;2023-02-15T12:24:44;97;86;
73623;PMS5003;61921;53.226;-1.296;2023-02-15T12:27:13;93;83;
73623;PMS5003;61921;53.226;-1.296;2023-02-15T12:29:35;93;85;
73623;PMS5003;61921;53.226;-1.296;2023-02-15T12:31:59;93;87;
73623;PMS5003;61921;53.226;-1.296;2023-02-15T12:34:26;90;82;
73623;PMS5003;61921;53.226;-1.296;2023-02-15T12:36:51;95;85;
73623;PMS5003;61921;53.226;-1.296;2023-02-15T12:39:17;87;82;
73623;PMS5003;61921;53.226;-1.296;2023-02-15T12:41:43;85;76;
73623;PMS5003;61921;53.226;-1.296;2023-02-15T12:44:09;94;84;
73623;PMS5003;61921;53.226;-1.296;2023-02-15T12:46:33;83;78;
73623;PMS5003;61921;53.226;-1.296;2023-02-15T12:49:04;86;79;
73623;PMS5003;61921;53.226;-1.296;2023-02-15T12:51:23;89;82;
73623;PMS5003;61921;53.226;-1.296;2023-02-15T12:53:48;81;75;
73623;PMS5003;61921;53.226;-1.296;2023-02-15T12:56:14;87;80;
73623;PMS5003;61921;53.226;-1.296;2023-02-15T12:58:41;86;79;
73623;PMS5003;61921;53.226;-1.296;2023-02-15T13:01:11;82;76;
73623;PMS5003;61921;53.226;-1.296;2023-02-15T13:03:31;80;72;
73623;PMS5003;61921;53.226;-1.296;2023-02-15T13:05:57;82;79;
73623;PMS5003;61921;53.226;-1.296;2023-02-15T13:08:26;85;79;
73623;PMS5003;61921;53.226;-1.296;2023-02-15T13:10:53;88;81;
73623;PMS5003;61921;53.226;-1.296;2023-02-15T13:13:16;86;81;
73623;PMS5003;61921;53.226;-1.296;2023-02-15T13:15:40;78;70;
73623;PMS5003;61921;53.226;-1.296;2023-02-15T13:18:05;86;75;
73623;PMS5003;61921;53.226;-1.296;2023-02-15T13:20:30;84;78;
73623;PMS5003;61921;53.226;-1.296;2023-02-15T13:22:58;86;79;
73623;PMS5003;61921;53.226;-1.296;2023-02-15T13:25:22;79;74;
73623;PMS5003;61921;53.226;-1.296;2023-02-15T13:27:48;84;81;
73623;PMS5003;61921;53.226;-1.296;2023-02-15T13:30:16;84;80;
73623;PMS5003;61921;53.226;-1.296;2023-02-15T13:32:38;81;73;
73623;PMS5003;61921;53.226;-1.296;2023-02-15T13:35:04;82;76;
73623;PMS5003;61921;53.226;-1.296;2023-02-15T13:37:34;80;73;
73623;PMS5003;61921;53.226;-1.296;2023-02-15T13:39:55;84;76;
73623;PMS5003;61921;53.226;-1.296;2023-02-15T13:42:20;85;73;
73623;PMS5003;61921;53.226;-1.296;2023-02-15T13:44:50;79;69;
73623;PMS5003;61921;53.226;-1.296;2023-02-15T13:47:13;79;70;
73623;PMS5003;61921;53.226;-1.296;2023-02-15T13:49:39;69;61;
73623;PMS5003;61921;53.226;-1.296;2023-02-15T13:52:04;71;68;
73623;PMS5003;61921;53.226;-1.296;2023-02-15T13:54:34;71;67;
73623;PMS5003;61921;53.226;-1.296;2023-02-15T13:56:55;69;66;
73623;PMS5003;61921;53.226;-1.296;2023-02-15T13:59:23;76;69;
73623;PMS5003;61921;53.226;-1.296;2023-02-15T14:01:45;71;68;
73623;PMS5003;61921;53.226;-1.296;2023-02-15T14:04:14;75;70;
73623;PMS5003;61921;53.226;-1.296;2023-02-15T14:06:38;72;67;
73623;PMS5003;61921;53.226;-1.296;2023-02-15T14:09:04;83;75;
73623;PMS5003;61921;53.226;-1.296;2023-02-15T14:11:27;72;69;
73623;PMS5003;61921;53.226;-1.296;2023-02-15T14:14:00;72;69;
73623;PMS5003;61921;53.226;-1.296;2023-02-15T14:16:18;71;66;
73623;PMS5003;61921;53.226;-1.296;2023-02-15T14:18:44;73;66;
73623;PMS5003;61921;53.226;-1.296;2023-02-15T14:21:08;67;64;
73623;PMS5003;61921;53.226;-1.296;2023-02-15T14:23:36;72;67;
73623;PMS5003;61921;53.226;-1.296;2023-02-15T14:25:59;68;63;
73623;PMS5003;61921;53.226;-1.296;2023-02-15T14:28:27;60;57;
73623;PMS5003;61921;53.226;-1.296;2023-02-15T14:30:49;65;64;
73623;PMS5003;61921;53.226;-1.296;2023-02-15T14:35:41;68;60;
73623;PMS5003;61921;53.226;-1.296;2023-02-15T14:38:10;63;59;
73623;PMS5003;61921;53.226;-1.296;2023-02-15T14:40:34;65;59;
73623;PMS5003;61921;53.226;-1.296;2023-02-15T14:42:58;67;62;
73623;PMS5003;61921;53.226;-1.296;2023-02-15T14:45:26;63;57;
73623;PMS5003;61921;53.226;-1.296;2023-02-15T14:47:51;70;62;
73623;PMS5003;61921;53.226;-1.296;2023-02-15T14:55:05;66;60;
73623;PMS5003;61921;53.226;-1.296;2023-02-15T14:57:31;61;56;
73623;PMS5003;61921;53.226;-1.296;2023-02-15T14:59:57;61;58;
73623;PMS5003;61921;53.226;-1.296;2023-02-15T15:02:23;67;60;
73623;PMS5003;61921;53.226;-1.296;2023-02-15T15:04:54;66;59;
73623;PMS5003;61921;53.226;-1.296;2023-02-15T15:07:14;63;56;
73623;PMS5003;61921;53.226;-1.296;2023-02-15T15:09:39;63;58;
73623;PMS5003;61921;53.226;-1.296;2023-02-15T15:14:37;68;61;
73623;PMS5003;61921;53.226;-1.296;2023-02-15T15:16:54;68;61;
73623;PMS5003;61921;53.226;-1.296;2023-02-15T15:21:53;64;56;
73623;PMS5003;61921;53.226;-1.296;2023-02-15T15:24:11;64;61;
73623;PMS5003;61921;53.226;-1.296;2023-02-15T15:26:37;71;64;
73623;PMS5003;61921;53.226;-1.296;2023-02-15T15:29:03;60;58;
73623;PMS5003;61921;53.226;-1.296;2023-02-15T15:31:30;54;52;
73623;PMS5003;61921;53.226;-1.296;2023-02-15T15:34:00;56;56;
73623;PMS5003;61921;53.226;-1.296;2023-02-15T15:36:25;58;54;
73623;PMS5003;61921;53.226;-1.296;2023-02-15T15:38:45;63;57;
73623;PMS5003;61921;53.226;-1.296;2023-02-15T15:46:06;64;57;
73623;PMS5003;61921;53.226;-1.296;2023-02-15T15:48:27;61;55;
73623;PMS5003;61921;53.226;-1.296;2023-02-15T15:50:51;64;55;
73623;PMS5003;61921;53.226;-1.296;2023-02-15T15:53:17;65;63;